sensor_id;sensor_type;location;lat;lon;timestamp;pressure;altitude;pressure_sealevel;temperature;humidity
39954;BME280;25631;51.516;-0.470;2023-03-22T00:01:33;100180.75;;;8.28;42.14
39954;BME280;25631;51.516;-0.470;2023-03-22T00:04:13;100180.95;;;8.76;42.08
39954;BME280;25631;51.516;-0.470;2023-03-22T00:06:49;100177.19;;;8.73;42.02
39954;BME280;25631;51.516;-0.470;2023-03-22T00:09:26;100163.86;;;8.84;42.06
39954;BME280;25631;51.516;-0.470;2023-03-22T00:12:03;100165.44;;;8.35;42.41
39954;BME280;25631;51.516;-0.470;2023-03-22T00:14:40;100160.25;;;8.45;42.51
39954;BME280;25631;51.516;-0.470;2023-03-22T00:17:16;100153.95;;;8.32;42.62
39954;BME280;25631;51.516;-0.470;2023-03-22T00:19:53;100148.30;;;8.23;42.73
39954;BME280;25631;51.516;-0.470;2023-03-22T00:22:30;100144.87;;;8.51;42.85
39954;BME280;25631;51.516;-0.470;2023-03-22T00:25:07;100136.86;;;8.34;42.69
39954;BME280;25631;51.516;-0.470;2023-03-22T00:27:44;100138.06;;;8.51;43.23
39954;BME280;25631;51.516;-0.470;2023-03-22T00:30:20;100128.07;;;8.53;43.18
39954;BME280;25631;51.516;-0.470;2023-03-22T00:32:56;100126.94;;;8.72;43.56
39954;BME280;25631;51.516;-0.470;2023-03-22T00:35:33;100117.16;;;8.72;43.60
39954;BME280;25631;51.516;-0.470;2023-03-22T00:38:09;100120.79;;;8.57;43.79
39954;BME280;25631;51.516;-0.470;2023-03-22T00:40:46;100105.57;;;8.58;43.90
39954;BME280;25631;51.516;-0.470;2023-03-22T00:43:22;100100.75;;;8.58;44.02
39954;BME280;25631;51.516;-0.470;2023-03-22T00:45:59;100091.54;;;8.53;44.01
39954;BME280;25631;51.516;-0.470;2023-03-22T00:48:36;100085.29;;;7.96;44.21
39954;BME280;25631;51.516;-0.470;2023-03-22T00:51:13;100076.73;;;8.24;44.07
39954;BME280;25631;51.516;-0.470;2023-03-22T00:53:49;100071.26;;;8.14;44.12
39954;BME280;25631;51.516;-0.470;2023-03-22T00:56:26;100065.52;;;8.22;44.06
39954;BME280;25631;51.516;-0.470;2023-03-22T00:59:03;100055.97;;;8.11;44.21
39954;BME280;25631;51.516;-0.470;2023-03-22T01:01:39;100046.96;;;8.44;44.20
39954;BME280;25631;51.516;-0.470;2023-03-22T01:04:16;100043.98;;;8.33;44.34
39954;BME280;25631;51.516;-0.470;2023-03-22T01:06:52;100043.58;;;7.73;45.02
39954;BME280;25631;51.516;-0.470;2023-03-22T01:09:30;100034.23;;;8.00;45.05
39954;BME280;25631;51.516;-0.470;2023-03-22T01:12:06;100019.53;;;7.93;45.26
39954;BME280;25631;51.516;-0.470;2023-03-22T01:14:43;100027.52;;;7.89;45.28
39954;BME280;25631;51.516;-0.470;2023-03-22T01:17:19;100031.90;;;8.06;45.07
39954;BME280;25631;51.516;-0.470;2023-03-22T01:19:56;100026.52;;;8.13;45.26
39954;BME280;25631;51.516;-0.470;2023-03-22T01:22:33;100024.19;;;8.15;45.64
39954;BME280;25631;51.516;-0.470;2023-03-22T01:25:09;100036.82;;;8.05;45.75
39954;BME280;25631;51.516;-0.470;2023-03-22T01:27:46;100022.37;;;7.92;46.09
39954;BME280;25631;51.516;-0.470;2023-03-22T01:30:22;100025.61;;;7.87;45.99
39954;BME280;25631;51.516;-0.470;2023-03-22T01:32:59;100021.53;;;8.14;45.85
39954;BME280;25631;51.516;-0.470;2023-03-22T01:35:35;100013.37;;;7.76;46.24
39954;BME280;25631;51.516;-0.470;2023-03-22T01:38:12;100001.33;;;7.98;45.94
39954;BME280;25631;51.516;-0.470;2023-03-22T01:40:49;99999.44;;;7.76;46.14
39954;BME280;25631;51.516;-0.470;2023-03-22T01:43:26;99995.81;;;7.84;46.30
39954;BME280;25631;51.516;-0.470;2023-03-22T01:46:02;99993.37;;;7.44;46.67
39954;BME280;25631;51.516;-0.470;2023-03-22T01:48:40;99987.41;;;7.92;46.27
39954;BME280;25631;51.516;-0.470;2023-03-22T01:51:19;99978.47;;;7.69;46.09
39954;BME280;25631;51.516;-0.470;2023-03-22T01:53:59;99978.50;;;8.16;46.21
39954;BME280;25631;51.516;-0.470;2023-03-22T01:56:39;99961.25;;;7.93;46.13
39954;BME280;25631;51.516;-0.470;2023-03-22T01:59:16;99957.79;;;8.10;46.30
39954;BME280;25631;51.516;-0.470;2023-03-22T02:01:53;99958.44;;;7.49;46.33
39954;BME280;25631;51.516;-0.470;2023-03-22T02:04:33;99940.95;;;7.79;46.42
39954;BME280;25631;51.516;-0.470;2023-03-22T02:07:13;99933.54;;;7.76;46.27
39954;BME280;25631;51.516;-0.470;2023-03-22T02:09:51;99941.52;;;8.25;46.03
39954;BME280;25631;51.516;-0.470;2023-03-22T02:12:33;99925.80;;;7.85;46.05
39954;BME280;25631;51.516;-0.470;2023-03-22T02:15:20;99930.60;;;7.94;46.11
39954;BME280;25631;51.516;-0.470;2023-03-22T02:18:08;99926.02;;;7.90;46.03
39954;BME280;25631;51.516;-0.470;2023-03-22T02:21:11;99929.46;;;7.96;46.13
39954;BME280;25631;51.516;-0.470;2023-03-22T02:25:54;99914.70;;;7.60;46.63
39954;BME280;25631;51.516;-0.470;2023-03-22T02:28:42;99902.90;;;7.96;46.33
39954;BME280;25631;51.516;-0.470;2023-03-22T02:31:31;99912.23;;;8.04;46.37
39954;BME280;25631;51.516;-0.470;2023-03-22T02:34:31;99903.58;;;7.84;46.36
39954;BME280;25631;51.516;-0.470;2023-03-22T02:37:27;99891.40;;;7.82;46.28
39954;BME280;25631;51.516;-0.470;2023-03-22T02:40:09;99889.88;;;7.63;46.25
39954;BME280;25631;51.516;-0.470;2023-03-22T02:42:53;99880.50;;;7.68;46.05
39954;BME280;25631;51.516;-0.470;2023-03-22T02:45:34;99881.12;;;8.13;45.69
39954;BME280;25631;51.516;-0.470;2023-03-22T02:48:17;99885.12;;;7.73;45.75
39954;BME280;25631;51.516;-0.470;2023-03-22T02:51:02;99884.91;;;7.71;45.60
39954;BME280;25631;51.516;-0.470;2023-03-22T02:53:45;99870.96;;;8.07;45.41
39954;BME280;25631;51.516;-0.470;2023-03-22T02:56:27;99877.96;;;7.62;45.62
39954;BME280;25631;51.516;-0.470;2023-03-22T02:59:08;99863.33;;;7.99;45.61
39954;BME280;25631;51.516;-0.470;2023-03-22T03:01:49;99867.33;;;8.09;45.59
39954;BME280;25631;51.516;-0.470;2023-03-22T03:04:29;99854.06;;;7.89;45.73
39954;BME280;25631;51.516;-0.470;2023-03-22T03:07:10;99855.03;;;7.55;46.12
39954;BME280;25631;51.516;-0.470;2023-03-22T03:09:48;99844.95;;;7.68;46.07
39954;BME280;25631;51.516;-0.470;2023-03-22T03:12:26;99839.87;;;7.81;46.07
39954;BME280;25631;51.516;-0.470;2023-03-22T03:15:10;99839.76;;;7.50;46.36
39954;BME280;25631;51.516;-0.470;2023-03-22T03:18:03;99835.00;;;7.76;46.24
39954;BME280;25631;51.516;-0.470;2023-03-22T03:20:55;99834.46;;;7.93;46.08
39954;BME280;25631;51.516;-0.470;2023-03-22T03:23:39;99836.36;;;7.53;46.41
39954;BME280;25631;51.516;-0.470;2023-03-22T03:26:24;99832.23;;;7.28;46.70
39954;BME280;25631;51.516;-0.470;2023-03-22T03:29:10;99829.96;;;7.47;46.61
39954;BME280;25631;51.516;-0.470;2023-03-22T03:31:52;99834.61;;;7.57;46.41
39954;BME280;25631;51.516;-0.470;2023-03-22T03:34:34;99826.79;;;7.67;46.51
39954;BME280;25631;51.516;-0.470;2023-03-22T03:37:18;99826.29;;;7.95;46.31
39954;BME280;25631;51.516;-0.470;2023-03-22T03:40:00;99830.04;;;7.59;46.79
39954;BME280;25631;51.516;-0.470;2023-03-22T03:42:42;99817.03;;;7.43;47.02
39954;BME280;25631;51.516;-0.470;2023-03-22T03:45:22;99814.96;;;7.71;47.07
39954;BME280;25631;51.516;-0.470;2023-03-22T03:48:03;99812.15;;;7.72;47.30
39954;BME280;25631;51.516;-0.470;2023-03-22T03:50:40;99814.47;;;7.34;47.57
39954;BME280;25631;51.516;-0.470;2023-03-22T03:53:17;99809.20;;;7.73;47.36
39954;BME280;25631;51.516;-0.470;2023-03-22T03:55:54;99803.34;;;7.93;47.31
39954;BME280;25631;51.516;-0.470;2023-03-22T03:58:30;99808.97;;;7.40;47.62
39954;BME280;25631;51.516;-0.470;2023-03-22T04:01:07;99809.91;;;7.47;47.82
39954;BME280;25631;51.516;-0.470;2023-03-22T04:03:43;99816.24;;;7.57;47.91
39954;BME280;25631;51.516;-0.470;2023-03-22T04:06:20;99808.71;;;7.33;48.56
39954;BME280;25631;51.516;-0.470;2023-03-22T04:08:56;99799.60;;;7.24;48.69
39954;BME280;25631;51.516;-0.470;2023-03-22T04:11:33;99799.61;;;7.32;48.74
39954;BME280;25631;51.516;-0.470;2023-03-22T04:14:10;99802.37;;;7.48;48.78
39954;BME280;25631;51.516;-0.470;2023-03-22T04:16:46;99805.25;;;7.08;49.01
39954;BME280;25631;51.516;-0.470;2023-03-22T04:19:23;99800.02;;;7.44;48.87
39954;BME280;25631;51.516;-0.470;2023-03-22T04:22:00;99795.95;;;7.27;49.16
39954;BME280;25631;51.516;-0.470;2023-03-22T04:24:37;99795.69;;;7.09;49.15
39954;BME280;25631;51.516;-0.470;2023-03-22T04:27:13;99797.15;;;7.13;49.35
39954;BME280;25631;51.516;-0.470;2023-03-22T04:29:50;99799.89;;;6.96;49.39
39954;BME280;25631;51.516;-0.470;2023-03-22T04:32:26;99793.41;;;7.36;49.32
39954;BME280;25631;51.516;-0.470;2023-03-22T04:35:03;99793.68;;;7.48;49.12
39954;BME280;25631;51.516;-0.470;2023-03-22T04:37:40;99795.47;;;7.55;49.26
39954;BME280;25631;51.516;-0.470;2023-03-22T04:40:17;99799.15;;;7.19;49.47
39954;BME280;25631;51.516;-0.470;2023-03-22T04:42:54;99794.82;;;7.33;49.48
39954;BME280;25631;51.516;-0.470;2023-03-22T04:45:30;99794.41;;;7.52;49.16
39954;BME280;25631;51.516;-0.470;2023-03-22T04:48:07;99793.98;;;7.68;49.16
39954;BME280;25631;51.516;-0.470;2023-03-22T04:50:43;99799.45;;;7.15;49.53
39954;BME280;25631;51.516;-0.470;2023-03-22T04:53:20;99798.86;;;7.33;49.63
39954;BME280;25631;51.516;-0.470;2023-03-22T04:55:56;99797.61;;;7.22;49.70
39954;BME280;25631;51.516;-0.470;2023-03-22T04:58:34;99794.24;;;7.30;49.54
39954;BME280;25631;51.516;-0.470;2023-03-22T05:01:13;99795.20;;;7.63;49.39
39954;BME280;25631;51.516;-0.470;2023-03-22T05:03:50;99789.86;;;7.42;49.58
39954;BME280;25631;51.516;-0.470;2023-03-22T05:06:26;99787.80;;;7.70;49.23
39954;BME280;25631;51.516;-0.470;2023-03-22T05:09:03;99786.85;;;7.85;49.15
39954;BME280;25631;51.516;-0.470;2023-03-22T05:11:40;99796.47;;;7.99;49.27
39954;BME280;25631;51.516;-0.470;2023-03-22T05:14:17;99784.25;;;7.44;49.32
39954;BME280;25631;51.516;-0.470;2023-03-22T05:16:53;99776.58;;;7.46;49.45
39954;BME280;25631;51.516;-0.470;2023-03-22T05:19:30;99787.26;;;7.62;49.33
39954;BME280;25631;51.516;-0.470;2023-03-22T05:22:07;99784.33;;;7.88;49.33
39954;BME280;25631;51.516;-0.470;2023-03-22T05:24:43;99781.59;;;7.53;49.30
39954;BME280;25631;51.516;-0.470;2023-03-22T05:27:19;99785.22;;;7.68;49.33
39954;BME280;25631;51.516;-0.470;2023-03-22T05:29:56;99776.92;;;7.81;49.40
39954;BME280;25631;51.516;-0.470;2023-03-22T05:32:32;99781.16;;;7.30;49.47
39954;BME280;25631;51.516;-0.470;2023-03-22T05:35:09;99781.71;;;7.53;49.62
39954;BME280;25631;51.516;-0.470;2023-03-22T05:37:46;99787.28;;;7.79;49.70
39954;BME280;25631;51.516;-0.470;2023-03-22T05:40:23;99781.89;;;7.27;49.75
39954;BME280;25631;51.516;-0.470;2023-03-22T05:43:00;99786.22;;;7.53;49.77
39954;BME280;25631;51.516;-0.470;2023-03-22T05:45:36;99782.62;;;7.13;49.85
39954;BME280;25631;51.516;-0.470;2023-03-22T05:48:12;99784.48;;;7.08;50.21
39954;BME280;25631;51.516;-0.470;2023-03-22T05:50:49;99792.50;;;6.82;50.46
39954;BME280;25631;51.516;-0.470;2023-03-22T05:53:25;99792.50;;;7.52;49.99
39954;BME280;25631;51.516;-0.470;2023-03-22T05:56:02;99787.24;;;6.98;50.20
39954;BME280;25631;51.516;-0.470;2023-03-22T05:58:39;99783.30;;;7.09;50.31
39954;BME280;25631;51.516;-0.470;2023-03-22T06:01:16;99771.30;;;7.80;50.27
39954;BME280;25631;51.516;-0.470;2023-03-22T06:03:53;99786.20;;;7.30;50.15
39954;BME280;25631;51.516;-0.470;2023-03-22T06:06:29;99784.81;;;7.34;50.14
39954;BME280;25631;51.516;-0.470;2023-03-22T06:09:05;99789.36;;;7.76;50.15
39954;BME280;25631;51.516;-0.470;2023-03-22T06:11:42;99787.16;;;7.51;50.18
39954;BME280;25631;51.516;-0.470;2023-03-22T06:14:18;99782.44;;;7.95;49.97
39954;BME280;25631;51.516;-0.470;2023-03-22T06:16:55;99788.27;;;7.69;49.89
39954;BME280;25631;51.516;-0.470;2023-03-22T06:19:31;99783.56;;;7.65;49.95
39954;BME280;25631;51.516;-0.470;2023-03-22T06:22:08;99784.90;;;7.46;50.18
39954;BME280;25631;51.516;-0.470;2023-03-22T06:24:45;99784.51;;;7.48;50.24
39954;BME280;25631;51.516;-0.470;2023-03-22T06:27:21;99781.16;;;7.10;50.27
39954;BME280;25631;51.516;-0.470;2023-03-22T06:29:58;99787.34;;;7.64;49.91
39954;BME280;25631;51.516;-0.470;2023-03-22T06:32:34;99778.51;;;7.87;49.85
39954;BME280;25631;51.516;-0.470;2023-03-22T06:35:11;99768.90;;;8.09;49.63
39954;BME280;25631;51.516;-0.470;2023-03-22T06:37:47;99767.41;;;7.77;49.82
39954;BME280;25631;51.516;-0.470;2023-03-22T06:40:23;99757.74;;;7.60;49.99
39954;BME280;25631;51.516;-0.470;2023-03-22T06:43:00;99750.94;;;7.98;50.06
39954;BME280;25631;51.516;-0.470;2023-03-22T06:45:37;99750.34;;;7.78;49.91
39954;BME280;25631;51.516;-0.470;2023-03-22T06:48:13;99754.06;;;7.96;49.83
39954;BME280;25631;51.516;-0.470;2023-03-22T06:50:50;99719.93;;;7.98;49.78
39954;BME280;25631;51.516;-0.470;2023-03-22T06:53:27;99717.20;;;7.93;49.72
39954;BME280;25631;51.516;-0.470;2023-03-22T06:56:04;99696.85;;;7.91;49.76
39954;BME280;25631;51.516;-0.470;2023-03-22T06:58:41;99725.88;;;7.85;49.76
39954;BME280;25631;51.516;-0.470;2023-03-22T07:01:17;99739.13;;;7.91;49.73
39954;BME280;25631;51.516;-0.470;2023-03-22T07:03:54;99769.22;;;7.55;49.99
39954;BME280;25631;51.516;-0.470;2023-03-22T07:06:30;99722.01;;;7.55;50.16
39954;BME280;25631;51.516;-0.470;2023-03-22T07:09:07;99730.78;;;7.81;49.95
39954;BME280;25631;51.516;-0.470;2023-03-22T07:11:43;99756.62;;;8.01;49.82
39954;BME280;25631;51.516;-0.470;2023-03-22T07:14:20;99764.64;;;7.83;50.04
39954;BME280;25631;51.516;-0.470;2023-03-22T07:16:57;99780.78;;;7.58;50.26
39954;BME280;25631;51.516;-0.470;2023-03-22T07:19:34;99784.03;;;7.72;50.09
39954;BME280;25631;51.516;-0.470;2023-03-22T07:22:10;99771.95;;;7.77;50.15
39954;BME280;25631;51.516;-0.470;2023-03-22T07:24:47;99782.54;;;7.78;50.04
39954;BME280;25631;51.516;-0.470;2023-03-22T07:27:24;99787.26;;;8.02;49.82
39954;BME280;25631;51.516;-0.470;2023-03-22T07:30:00;99787.17;;;7.78;49.93
39954;BME280;25631;51.516;-0.470;2023-03-22T07:32:39;99774.21;;;8.08;49.94
39954;BME280;25631;51.516;-0.470;2023-03-22T07:35:16;99783.96;;;7.86;50.03
39954;BME280;25631;51.516;-0.470;2023-03-22T07:37:52;99777.12;;;7.98;50.01
39954;BME280;25631;51.516;-0.470;2023-03-22T07:40:29;99780.90;;;8.00;50.09
39954;BME280;25631;51.516;-0.470;2023-03-22T07:43:06;99792.71;;;7.88;50.20
39954;BME280;25631;51.516;-0.470;2023-03-22T07:45:42;99796.27;;;7.91;50.28
39954;BME280;25631;51.516;-0.470;2023-03-22T07:48:20;99800.74;;;8.24;50.03
39954;BME280;25631;51.516;-0.470;2023-03-22T07:50:57;99794.56;;;8.19;50.20
39954;BME280;25631;51.516;-0.470;2023-03-22T07:53:34;99807.68;;;7.94;50.23
39954;BME280;25631;51.516;-0.470;2023-03-22T07:56:10;99796.47;;;8.14;50.16
39954;BME280;25631;51.516;-0.470;2023-03-22T07:58:46;99791.77;;;8.07;50.47
39954;BME280;25631;51.516;-0.470;2023-03-22T08:01:23;99792.46;;;8.27;50.57
39954;BME280;25631;51.516;-0.470;2023-03-22T08:04:00;99800.13;;;8.27;50.83
39954;BME280;25631;51.516;-0.470;2023-03-22T08:06:36;99801.30;;;7.98;50.94
39954;BME280;25631;51.516;-0.470;2023-03-22T08:09:13;99798.63;;;8.37;50.84
39954;BME280;25631;51.516;-0.470;2023-03-22T08:11:50;99811.22;;;8.26;50.73
39954;BME280;25631;51.516;-0.470;2023-03-22T08:14:26;99804.42;;;8.20;50.66
39954;BME280;25631;51.516;-0.470;2023-03-22T08:17:03;99807.66;;;8.15;50.76
39954;BME280;25631;51.516;-0.470;2023-03-22T08:19:39;99809.36;;;8.24;50.56
39954;BME280;25631;51.516;-0.470;2023-03-22T08:22:16;99813.34;;;7.38;50.70
39954;BME280;25631;51.516;-0.470;2023-03-22T08:24:52;99818.14;;;8.48;50.54
39954;BME280;25631;51.516;-0.470;2023-03-22T08:27:29;99816.51;;;7.90;50.63
39954;BME280;25631;51.516;-0.470;2023-03-22T08:30:09;99811.28;;;7.97;50.88
39954;BME280;25631;51.516;-0.470;2023-03-22T08:32:46;99809.45;;;8.33;50.66
39954;BME280;25631;51.516;-0.470;2023-03-22T08:35:22;99810.60;;;8.40;50.60
39954;BME280;25631;51.516;-0.470;2023-03-22T08:37:59;99809.89;;;8.39;50.44
39954;BME280;25631;51.516;-0.470;2023-03-22T08:40:35;99817.81;;;7.83;50.81
39954;BME280;25631;51.516;-0.470;2023-03-22T08:43:12;99813.37;;;8.26;50.75
39954;BME280;25631;51.516;-0.470;2023-03-22T08:45:48;99814.06;;;8.69;50.65
39954;BME280;25631;51.516;-0.470;2023-03-22T08:48:25;99825.67;;;8.51;50.49
39954;BME280;25631;51.516;-0.470;2023-03-22T08:51:01;99819.53;;;8.44;50.38
39954;BME280;25631;51.516;-0.470;2023-03-22T08:53:38;99820.07;;;8.80;50.26
39954;BME280;25631;51.516;-0.470;2023-03-22T08:56:15;99826.64;;;8.97;50.06
39954;BME280;25631;51.516;-0.470;2023-03-22T08:58:51;99836.18;;;9.08;50.18
39954;BME280;25631;51.516;-0.470;2023-03-22T09:01:28;99829.62;;;9.00;49.98
39954;BME280;25631;51.516;-0.470;2023-03-22T09:04:04;99830.42;;;9.16;49.86
39954;BME280;25631;51.516;-0.470;2023-03-22T09:06:40;99839.40;;;8.96;49.70
39954;BME280;25631;51.516;-0.470;2023-03-22T09:09:17;99836.64;;;9.19;49.57
39954;BME280;25631;51.516;-0.470;2023-03-22T09:11:54;99843.08;;;9.21;49.49
39954;BME280;25631;51.516;-0.470;2023-03-22T09:14:30;99839.99;;;9.51;49.20
39954;BME280;25631;51.516;-0.470;2023-03-22T09:17:07;99839.24;;;9.55;49.11
39954;BME280;25631;51.516;-0.470;2023-03-22T09:19:43;99836.57;;;9.56;48.85
39954;BME280;25631;51.516;-0.470;2023-03-22T09:22:20;99842.24;;;9.38;48.72
39954;BME280;25631;51.516;-0.470;2023-03-22T09:24:57;99838.99;;;9.47;48.62
39954;BME280;25631;51.516;-0.470;2023-03-22T09:27:33;99839.15;;;9.09;48.64
39954;BME280;25631;51.516;-0.470;2023-03-22T09:30:10;99838.46;;;8.96;48.65
39954;BME280;25631;51.516;-0.470;2023-03-22T09:32:47;99829.02;;;9.34;48.11
39954;BME280;25631;51.516;-0.470;2023-03-22T09:35:23;99829.19;;;9.75;48.05
39954;BME280;25631;51.516;-0.470;2023-03-22T09:38:00;99834.90;;;9.42;47.84
39954;BME280;25631;51.516;-0.470;2023-03-22T09:40:42;99829.28;;;9.90;47.98
39954;BME280;25631;51.516;-0.470;2023-03-22T09:43:21;99834.67;;;9.49;47.68
39954;BME280;25631;51.516;-0.470;2023-03-22T09:45:59;99841.41;;;9.82;47.67
39954;BME280;25631;51.516;-0.470;2023-03-22T09:48:38;99837.05;;;10.16;47.48
39954;BME280;25631;51.516;-0.470;2023-03-22T09:51:26;99838.01;;;10.12;47.41
39954;BME280;25631;51.516;-0.470;2023-03-22T09:54:10;99839.60;;;10.00;46.99
39954;BME280;25631;51.516;-0.470;2023-03-22T09:56:52;99834.46;;;9.99;46.78
39954;BME280;25631;51.516;-0.470;2023-03-22T09:59:37;99839.46;;;10.24;46.61
39954;BME280;25631;51.516;-0.470;2023-03-22T10:02:31;99830.27;;;9.86;46.48
39954;BME280;25631;51.516;-0.470;2023-03-22T10:05:16;99839.21;;;9.98;46.51
39954;BME280;25631;51.516;-0.470;2023-03-22T10:08:08;99842.05;;;10.02;46.41
39954;BME280;25631;51.516;-0.470;2023-03-22T10:10:48;99839.83;;;10.00;46.35
39954;BME280;25631;51.516;-0.470;2023-03-22T10:13:30;99836.75;;;9.67;46.41
39954;BME280;25631;51.516;-0.470;2023-03-22T10:16:12;99837.51;;;9.73;46.30
39954;BME280;25631;51.516;-0.470;2023-03-22T10:19:00;99833.91;;;9.73;46.43
39954;BME280;25631;51.516;-0.470;2023-03-22T10:21:39;99842.85;;;10.16;46.59
39954;BME280;25631;51.516;-0.470;2023-03-22T10:24:19;99846.81;;;9.75;46.39
39954;BME280;25631;51.516;-0.470;2023-03-22T10:26:57;99844.31;;;9.62;46.21
39954;BME280;25631;51.516;-0.470;2023-03-22T10:29:36;99854.24;;;9.99;46.15
39954;BME280;25631;51.516;-0.470;2023-03-22T10:32:15;99859.90;;;9.89;46.48
39954;BME280;25631;51.516;-0.470;2023-03-22T10:34:52;99854.54;;;10.24;46.28
39954;BME280;25631;51.516;-0.470;2023-03-22T10:37:31;99846.68;;;9.73;45.93
39954;BME280;25631;51.516;-0.470;2023-03-22T10:40:15;99842.39;;;10.48;45.50
39954;BME280;25631;51.516;-0.470;2023-03-22T10:42:54;99847.59;;;10.58;45.31
39954;BME280;25631;51.516;-0.470;2023-03-22T10:45:33;99843.43;;;10.62;45.09
39954;BME280;25631;51.516;-0.470;2023-03-22T10:48:15;99839.56;;;10.67;45.29
39954;BME280;25631;51.516;-0.470;2023-03-22T10:50:58;99835.48;;;11.00;44.49
39954;BME280;25631;51.516;-0.470;2023-03-22T10:53:37;99836.68;;;10.75;44.75
39954;BME280;25631;51.516;-0.470;2023-03-22T10:56:16;99841.29;;;10.62;44.66
39954;BME280;25631;51.516;-0.470;2023-03-22T10:58:54;99847.90;;;10.87;44.44
39954;BME280;25631;51.516;-0.470;2023-03-22T11:01:33;99842.23;;;10.79;43.80
39954;BME280;25631;51.516;-0.470;2023-03-22T11:04:16;99836.62;;;10.85;43.43
39954;BME280;25631;51.516;-0.470;2023-03-22T11:06:52;99840.24;;;10.73;43.79
39954;BME280;25631;51.516;-0.470;2023-03-22T11:09:29;99836.31;;;10.92;43.89
39954;BME280;25631;51.516;-0.470;2023-03-22T11:12:11;99837.21;;;11.09;43.40
39954;BME280;25631;51.516;-0.470;2023-03-22T11:14:50;99837.20;;;10.81;42.63
39954;BME280;25631;51.516;-0.470;2023-03-22T11:17:28;99844.97;;;10.99;42.96
39954;BME280;25631;51.516;-0.470;2023-03-22T11:20:12;99852.51;;;11.33;42.50
39954;BME280;25631;51.516;-0.470;2023-03-22T11:22:50;99840.59;;;11.50;41.74
39954;BME280;25631;51.516;-0.470;2023-03-22T11:25:29;99836.12;;;11.55;41.93
39954;BME280;25631;51.516;-0.470;2023-03-22T11:28:08;99832.69;;;11.25;41.23
39954;BME280;25631;51.516;-0.470;2023-03-22T11:31:01;99829.73;;;11.27;40.17
39954;BME280;25631;51.516;-0.470;2023-03-22T11:33:53;99819.01;;;11.53;39.55
39954;BME280;25631;51.516;-0.470;2023-03-22T11:36:29;99826.90;;;11.51;39.64
39954;BME280;25631;51.516;-0.470;2023-03-22T11:39:06;99818.53;;;11.39;39.03
39954;BME280;25631;51.516;-0.470;2023-03-22T11:41:44;99822.66;;;11.78;39.13
39954;BME280;25631;51.516;-0.470;2023-03-22T11:44:21;99824.19;;;11.82;38.36
39954;BME280;25631;51.516;-0.470;2023-03-22T11:47:03;99818.71;;;11.34;38.43
39954;BME280;25631;51.516;-0.470;2023-03-22T11:49:45;99821.24;;;11.54;38.16
39954;BME280;25631;51.516;-0.470;2023-03-22T11:52:24;99821.65;;;11.28;38.41
39954;BME280;25631;51.516;-0.470;2023-03-22T11:55:03;99826.74;;;11.89;38.26
39954;BME280;25631;51.516;-0.470;2023-03-22T11:57:40;99822.00;;;11.59;38.74
39954;BME280;25631;51.516;-0.470;2023-03-22T12:00:20;99813.15;;;12.01;37.88
39954;BME280;25631;51.516;-0.470;2023-03-22T12:03:02;99815.89;;;12.03;37.63
39954;BME280;25631;51.516;-0.470;2023-03-22T12:05:42;99811.15;;;12.36;37.48
39954;BME280;25631;51.516;-0.470;2023-03-22T12:08:24;99810.58;;;12.09;36.90
39954;BME280;25631;51.516;-0.470;2023-03-22T12:11:06;99812.93;;;11.86;37.08
39954;BME280;25631;51.516;-0.470;2023-03-22T12:13:47;99808.89;;;11.78;37.05
39954;BME280;25631;51.516;-0.470;2023-03-22T12:16:28;99802.85;;;12.28;36.89
39954;BME280;25631;51.516;-0.470;2023-03-22T12:19:13;99803.82;;;12.26;36.73
39954;BME280;25631;51.516;-0.470;2023-03-22T12:21:54;99795.56;;;12.29;36.69
39954;BME280;25631;51.516;-0.470;2023-03-22T12:24:31;99800.70;;;11.70;36.13
39954;BME280;25631;51.516;-0.470;2023-03-22T12:27:14;99801.44;;;11.97;36.50
39954;BME280;25631;51.516;-0.470;2023-03-22T12:29:55;99803.11;;;12.38;36.36
39954;BME280;25631;51.516;-0.470;2023-03-22T12:32:36;99803.67;;;11.93;36.06
39954;BME280;25631;51.516;-0.470;2023-03-22T12:35:20;99792.71;;;11.77;35.84
39954;BME280;25631;51.516;-0.470;2023-03-22T12:38:00;99795.35;;;11.59;36.19
39954;BME280;25631;51.516;-0.470;2023-03-22T12:40:41;99791.97;;;12.17;36.43
39954;BME280;25631;51.516;-0.470;2023-03-22T12:43:26;99794.44;;;12.13;37.10
39954;BME280;25631;51.516;-0.470;2023-03-22T12:46:16;99797.82;;;12.49;36.73
39954;BME280;25631;51.516;-0.470;2023-03-22T12:48:57;99801.96;;;12.35;36.93
39954;BME280;25631;51.516;-0.470;2023-03-22T12:51:37;99798.32;;;12.22;36.46
39954;BME280;25631;51.516;-0.470;2023-03-22T12:54:14;99798.68;;;12.18;36.31
39954;BME280;25631;51.516;-0.470;2023-03-22T12:56:54;99795.52;;;12.35;36.56
39954;BME280;25631;51.516;-0.470;2023-03-22T12:59:31;99800.51;;;11.88;36.41
39954;BME280;25631;51.516;-0.470;2023-03-22T13:02:15;99794.97;;;12.03;36.09
39954;BME280;25631;51.516;-0.470;2023-03-22T13:04:56;99785.00;;;12.40;36.53
39954;BME280;25631;51.516;-0.470;2023-03-22T13:07:38;99782.55;;;12.43;36.40
39954;BME280;25631;51.516;-0.470;2023-03-22T13:10:58;99774.34;;;12.15;36.46
39954;BME280;25631;51.516;-0.470;2023-03-22T13:13:45;99782.26;;;12.59;36.48
39954;BME280;25631;51.516;-0.470;2023-03-22T13:16:24;99787.94;;;12.25;36.58
39954;BME280;25631;51.516;-0.470;2023-03-22T13:19:35;99783.29;;;12.03;36.24
39954;BME280;25631;51.516;-0.470;2023-03-22T13:22:15;99789.24;;;12.49;36.15
39954;BME280;25631;51.516;-0.470;2023-03-22T13:25:05;99788.79;;;12.32;36.04
39954;BME280;25631;51.516;-0.470;2023-03-22T13:27:50;99790.99;;;12.25;36.31
39954;BME280;25631;51.516;-0.470;2023-03-22T13:30:30;99779.17;;;12.49;36.20
39954;BME280;25631;51.516;-0.470;2023-03-22T13:33:13;99767.16;;;12.22;36.49
39954;BME280;25631;51.516;-0.470;2023-03-22T13:35:51;99763.28;;;12.16;36.70
39954;BME280;25631;51.516;-0.470;2023-03-22T13:38:32;99738.34;;;11.81;36.55
39954;BME280;25631;51.516;-0.470;2023-03-22T13:41:19;99724.42;;;11.92;36.74
39954;BME280;25631;51.516;-0.470;2023-03-22T13:43:57;99716.53;;;11.64;36.53
39954;BME280;25631;51.516;-0.470;2023-03-22T13:46:51;99721.69;;;12.09;36.54
39954;BME280;25631;51.516;-0.470;2023-03-22T13:50:05;99707.61;;;11.88;37.27
39954;BME280;25631;51.516;-0.470;2023-03-22T13:52:53;99713.45;;;11.59;37.34
39954;BME280;25631;51.516;-0.470;2023-03-22T13:55:39;99711.28;;;11.38;37.54
39954;BME280;25631;51.516;-0.470;2023-03-22T13:58:33;99705.34;;;11.41;37.54
39954;BME280;25631;51.516;-0.470;2023-03-22T14:01:14;99698.75;;;11.51;36.96